Flowers Landing, Louisiana
Current Conditions -  °F | °C
As of 10:53 AM on Wednesday 26 Nov 2014 (Local Time) from KTVR Reporting Station
Clear Clear  
Wind Chill: 58°   Ceiling: Unl
Heat Index: 58°   Visibility: 10mi
Dew Point: 36°   Wind: 9mph
Humidity: 44%   Direction: 220°SW
Pressure: 30.16"   Gusts: 18mph
Location:  32.1015°N, 91.2929°W
Report Text: KTVR 261653Z AUTO 22008G16KT 10SM CLR 14/02 A3016 RMK AO2 SLP219 T01440022
Loading
Personal Weather Stations






























Interactive Weather Map New forecast layout! Learn more

10-Day Weather Forecast

Advertisements
Track Severe Weather on mobile